Time;durP1;ratioP1;P1;durP2;ratioP2;P2;SDS_P1;SDS_P2;PMS_P1;PMS_P2;Temp;Humidity;BMP_temperature;BMP_pressure;BME280_temperature;BME280_humidity;BME280_pressure;Samples;Min_cycle;Max_cycle;Signal;HPM_P1;HPM_P2
2022/12/26 00:00:35;;;;;;;1.77;1.67;;;;;;;;;;5068560;28;20440;-69
2022/12/26 00:03:01;;;;;;;1.20;1.20;;;;;;;;;;5068763;28;20433;-69
2022/12/26 00:05:27;;;;;;;1.37;1.17;;;;;;;;;;5068924;28;20464;-69
2022/12/26 00:07:53;;;;;;;1.70;1.67;;;;;;;;;;5070127;28;20531;-69
2022/12/26 00:10:19;;;;;;;1.93;1.90;;;;;;;;;;5068713;28;20493;-69
2022/12/26 00:12:45;;;;;;;2.33;2.23;;;;;;;;;;5069412;28;20426;-69
2022/12/26 00:15:11;;;;;;;1.67;1.67;;;;;;;;;;5070556;28;20445;-69
2022/12/26 00:17:36;;;;;;;1.33;1.33;;;;;;;;;;5069317;28;20448;-69
2022/12/26 00:20:03;;;;;;;1.70;1.70;;;;;;;;;;5068139;28;20473;-69
2022/12/26 00:22:29;;;;;;;1.60;1.60;;;;;;;;;;5069752;28;20433;-69
2022/12/26 00:24:55;;;;;;;1.50;1.40;;;;;;;;;;5069598;28;20794;-69
2022/12/26 00:27:21;;;;;;;0.93;0.93;;;;;;;;;;5068745;28;20495;-69
2022/12/26 00:29:47;;;;;;;1.40;1.40;;;;;;;;;;5068222;28;20519;-69
2022/12/26 00:32:13;;;;;;;1.30;1.07;;;;;;;;;;5069449;28;20563;-69
2022/12/26 00:34:40;;;;;;;1.30;1.30;;;;;;;;;;5068998;28;20452;-69
2022/12/26 00:37:06;;;;;;;1.53;1.53;;;;;;;;;;5069152;28;20425;-69
2022/12/26 00:39:32;;;;;;;1.47;1.47;;;;;;;;;;5049718;28;20448;-69
2022/12/26 00:41:57;;;;;;;3.63;2.03;;;;;;;;;;5069144;28;20455;-69
2022/12/26 00:44:23;;;;;;;1.57;1.50;;;;;;;;;;5068775;28;20445;-69
2022/12/26 00:46:49;;;;;;;2.83;1.30;;;;;;;;;;5049604;28;20501;-69
2022/12/26 00:49:15;;;;;;;2.23;1.43;;;;;;;;;;5068341;28;20525;-69
2022/12/26 00:51:41;;;;;;;1.80;1.47;;;;;;;;;;5070335;28;20809;-69
2022/12/26 00:54:07;;;;;;;1.30;1.30;;;;;;;;;;5069257;28;20906;-69
2022/12/26 00:56:33;;;;;;;2.83;1.23;;;;;;;;;;5070378;28;20452;-69
2022/12/26 00:58:59;;;;;;;6.20;1.50;;;;;;;;;;5050356;28;20430;-69
2022/12/26 01:01:27;;;;;;;1.63;1.60;;;;;;;;;;5069036;28;20524;-69
2022/12/26 01:03:53;;;;;;;1.40;1.30;;;;;;;;;;5070044;28;20813;-69
2022/12/26 01:06:19;;;;;;;6.50;1.70;;;;;;;;;;5068877;28;20476;-69
2022/12/26 01:08:45;;;;;;;1.07;1.07;;;;;;;;;;5069053;28;20801;-69
2022/12/26 01:11:12;;;;;;;1.20;1.17;;;;;;;;;;5069072;28;20445;-69
2022/12/26 01:13:38;;;;;;;1.23;1.23;;;;;;;;;;5069150;28;20498;-69
2022/12/26 01:16:05;;;;;;;1.20;1.20;;;;;;;;;;5068994;28;20453;-69
2022/12/26 01:18:31;;;;;;;1.00;1.00;;;;;;;;;;5068210;28;20873;-69
2022/12/26 01:20:59;;;;;;;1.10;1.10;;;;;;;;;;5069251;28;20421;-69
2022/12/26 01:23:25;;;;;;;2.40;1.47;;;;;;;;;;5069207;28;21039;-69
2022/12/26 01:25:51;;;;;;;1.10;1.10;;;;;;;;;;5069075;28;20505;-69
2022/12/26 01:28:17;;;;;;;2.23;1.53;;;;;;;;;;5069635;28;20776;-69
2022/12/26 01:30:42;;;;;;;1.07;1.07;;;;;;;;;;5068938;28;20564;-69
2022/12/26 01:33:08;;;;;;;1.27;1.23;;;;;;;;;;5069262;28;20433;-69
2022/12/26 01:35:34;;;;;;;3.23;1.70;;;;;;;;;;5069264;28;20507;-69
2022/12/26 01:38:00;;;;;;;2.93;1.20;;;;;;;;;;5069163;28;20429;-69
2022/12/26 01:40:26;;;;;;;0.90;0.90;;;;;;;;;;5067971;28;20469;-69
2022/12/26 01:42:52;;;;;;;2.50;1.20;;;;;;;;;;5068986;28;21018;-69
2022/12/26 01:45:31;;;;;;;1.30;1.30;;;;;;;;;;5068856;28;20433;-69
2022/12/26 01:48:03;;;;;;;2.10;1.90;;;;;;;;;;5068792;28;20445;-69
2022/12/26 01:50:37;;;;;;;1.27;1.27;;;;;;;;;;5068402;28;20500;-69
2022/12/26 01:53:08;;;;;;;1.13;1.13;;;;;;;;;;5072636;28;20516;-69
2022/12/26 01:55:34;;;;;;;1.80;1.37;;;;;;;;;;5072456;28;20457;-69
2022/12/26 01:58:02;;;;;;;1.20;1.20;;;;;;;;;;5072495;28;20428;-69
2022/12/26 02:00:28;;;;;;;1.00;1.00;;;;;;;;;;5072111;28;20921;-69
2022/12/26 02:05:39;;;;;;;1.07;1.07;;;;;;;;;;5072267;28;20499;-69
2022/12/26 02:08:08;;;;;;;1.00;1.00;;;;;;;;;;5073173;28;20449;-69
2022/12/26 02:10:37;;;;;;;1.33;1.33;;;;;;;;;;5070256;28;20520;-69
2022/12/26 02:13:04;;;;;;;1.23;1.23;;;;;;;;;;5072173;28;20464;-69
2022/12/26 02:15:30;;;;;;;1.13;1.00;;;;;;;;;;5072297;28;20425;-69
2022/12/26 02:17:56;;;;;;;1.33;1.33;;;;;;;;;;5071395;28;20918;-69
2022/12/26 02:20:25;;;;;;;5.70;1.27;;;;;;;;;;5071301;28;20475;-69
2022/12/26 02:23:03;;;;;;;1.33;1.33;;;;;;;;;;5072363;28;20473;-69
2022/12/26 02:25:32;;;;;;;1.23;1.23;;;;;;;;;;5072343;28;20439;-69
2022/12/26 02:27:58;;;;;;;1.07;1.07;;;;;;;;;;5071998;28;20452;-69
2022/12/26 02:30:39;;;;;;;1.23;1.23;;;;;;;;;;5071128;28;20521;-69
2022/12/26 02:33:11;;;;;;;1.20;1.20;;;;;;;;;;5071989;28;20437;-69
2022/12/26 02:35:45;;;;;;;0.80;0.80;;;;;;;;;;5071996;28;20429;-69
2022/12/26 02:38:21;;;;;;;2.30;1.20;;;;;;;;;;5071471;28;20432;-69
2022/12/26 02:41:03;;;;;;;2.27;1.47;;;;;;;;;;5071024;28;20438;-69
2022/12/26 02:43:29;;;;;;;2.53;1.50;;;;;;;;;;5053929;28;20440;-69
2022/12/26 02:49:03;;;;;;;1.00;1.00;;;;;;;;;;5070666;28;20209;-69
2022/12/26 03:14:14;;;;;;;0.90;0.90;;;;;;;;;;5073086;28;20493;-69
2022/12/26 03:17:25;;;;;;;1.23;0.93;;;;;;;;;;5052911;28;20441;-69
2022/12/26 03:19:27;;;;;;;1.07;1.07;;;;;;;;;;5062202;28;20424;-69
2022/12/26 03:21:53;;;;;;;3.63;1.33;;;;;;;;;;5070794;28;20558;-69
2022/12/26 03:24:21;;;;;;;1.00;1.00;;;;;;;;;;5070862;28;20437;-69
2022/12/26 03:26:49;;;;;;;1.20;1.20;;;;;;;;;;5071288;28;20996;-68
2022/12/26 03:32:02;;;;;;;2.03;1.93;;;;;;;;;;5070721;28;20429;-69
2022/12/26 03:34:28;;;;;;;1.10;1.10;;;;;;;;;;5071447;28;20444;-69
2022/12/26 03:36:54;;;;;;;1.83;1.30;;;;;;;;;;5070888;28;20490;-69
2022/12/26 04:19:22;;;;;;;1.23;1.23;;;;;;;;;;5069492;28;20449;-69
2022/12/26 04:44:31;;;;;;;1.80;1.60;;;;;;;;;;5068259;28;20497;-69
2022/12/26 04:46:51;;;;;;;1.30;1.30;;;;;;;;;;5065702;28;20432;-69
2022/12/26 04:52:04;;;;;;;2.00;1.80;;;;;;;;;;5070215;28;20419;-69
2022/12/26 04:54:30;;;;;;;1.53;1.47;;;;;;;;;;5068756;28;20433;-69
2022/12/26 04:56:56;;;;;;;1.77;1.63;;;;;;;;;;5069223;28;20425;-68
2022/12/26 04:59:22;;;;;;;1.03;1.03;;;;;;;;;;5050933;28;20798;-69
2022/12/26 05:10:05;;;;;;;1.57;1.57;;;;;;;;;;5069162;28;20510;-69
2022/12/26 05:12:31;;;;;;;2.10;1.40;;;;;;;;;;5069036;28;20500;-69
2022/12/26 05:14:57;;;;;;;1.20;1.20;;;;;;;;;;5069061;28;20541;-69
2022/12/26 05:28:40;;;;;;;1.37;1.37;;;;;;;;;;5069056;28;20470;-69
2022/12/26 05:28:49;;;;;;;1.60;1.43;;;;;;;;;;5073008;28;20419;-69
2022/12/26 05:31:16;;;;;;;8.63;1.00;;;;;;;;;;5072684;28;20445;-69
2022/12/26 05:36:31;;;;;;;1.33;1.33;;;;;;;;;;5073589;28;20412;-69
2022/12/26 05:38:57;;;;;;;1.63;1.63;;;;;;;;;;5072644;28;20456;-69
2022/12/26 05:41:23;;;;;;;9.23;1.40;;;;;;;;;;5072796;28;20572;-69
2022/12/26 05:43:49;;;;;;;0.90;0.90;;;;;;;;;;5072566;28;20785;-69
2022/12/26 05:46:15;;;;;;;1.73;1.73;;;;;;;;;;5072592;28;20421;-69
2022/12/26 05:48:41;;;;;;;1.50;1.50;;;;;;;;;;5071956;28;20816;-69
2022/12/26 05:51:07;;;;;;;1.30;1.17;;;;;;;;;;5072787;28;20491;-69
2022/12/26 05:53:33;;;;;;;2.20;1.63;;;;;;;;;;5072562;28;20428;-69
2022/12/26 05:56:06;;;;;;;1.40;1.30;;;;;;;;;;5072872;28;20527;-69
2022/12/26 05:58:32;;;;;;;1.10;1.10;;;;;;;;;;5054028;28;20446;-69
2022/12/26 06:01:05;;;;;;;2.40;1.37;;;;;;;;;;5072215;28;20855;-69
2022/12/26 06:03:32;;;;;;;1.17;1.17;;;;;;;;;;5071471;28;20831;-69
2022/12/26 06:05:58;;;;;;;0.90;0.90;;;;;;;;;;5071650;28;21019;-69
2022/12/26 06:08:24;;;;;;;1.53;1.53;;;;;;;;;;5070977;28;20472;-69
2022/12/26 06:10:50;;;;;;;1.30;1.20;;;;;;;;;;5071574;28;20485;-69
2022/12/26 06:13:16;;;;;;;2.00;1.30;;;;;;;;;;5072399;28;21043;-69
2022/12/26 06:15:42;;;;;;;4.03;1.73;;;;;;;;;;5071975;28;21575;-69
2022/12/26 06:18:08;;;;;;;5.60;1.40;;;;;;;;;;5071619;28;20426;-69
2022/12/26 06:20:34;;;;;;;1.10;1.10;;;;;;;;;;5071503;28;20576;-69
2022/12/26 06:23:00;;;;;;;1.13;1.13;;;;;;;;;;5071769;28;20483;-70
2022/12/26 06:25:26;;;;;;;1.07;1.07;;;;;;;;;;5071909;28;20448;-69
2022/12/26 06:27:52;;;;;;;1.23;1.23;;;;;;;;;;5071719;28;20430;-69
2022/12/26 06:30:17;;;;;;;1.73;1.03;;;;;;;;;;5071518;28;20573;-69
2022/12/26 06:32:43;;;;;;;1.10;1.10;;;;;;;;;;5071274;28;20494;-69
2022/12/26 06:35:09;;;;;;;2.00;1.10;;;;;;;;;;5071550;28;20430;-69
2022/12/26 06:37:35;;;;;;;3.33;1.23;;;;;;;;;;5071737;28;20504;-69
2022/12/26 06:40:01;;;;;;;1.00;1.00;;;;;;;;;;5071114;28;20456;-69
2022/12/26 06:42:28;;;;;;;2.20;1.20;;;;;;;;;;5072026;28;20793;-69
2022/12/26 06:44:54;;;;;;;3.20;1.57;;;;;;;;;;5071206;28;20437;-69
2022/12/26 06:47:20;;;;;;;2.30;1.23;;;;;;;;;;5049913;28;20794;-69
2022/12/26 06:49:46;;;;;;;1.13;1.13;;;;;;;;;;5068682;28;20488;-69
2022/12/26 06:52:13;;;;;;;1.10;1.10;;;;;;;;;;5071064;28;20426;-69
2022/12/26 06:54:39;;;;;;;1.00;0.87;;;;;;;;;;5069811;28;20429;-70
2022/12/26 06:57:06;;;;;;;1.00;1.00;;;;;;;;;;5070630;28;20426;-67
2022/12/26 06:59:32;;;;;;;1.80;1.17;;;;;;;;;;5069646;28;20504;-68
2022/12/26 07:01:58;;;;;;;1.23;1.10;;;;;;;;;;5066482;28;20935;-68
2022/12/26 07:04:24;;;;;;;0.93;0.93;;;;;;;;;;5069960;28;20494;-68
2022/12/26 07:06:51;;;;;;;1.00;1.00;;;;;;;;;;5070077;28;20508;-67
2022/12/26 07:09:17;;;;;;;1.40;1.30;;;;;;;;;;5069968;28;20472;-68
2022/12/26 07:11:45;;;;;;;2.97;1.30;;;;;;;;;;5070053;28;20429;-69
2022/12/26 07:14:11;;;;;;;1.10;1.00;;;;;;;;;;5069591;28;20437;-68
2022/12/26 07:16:38;;;;;;;2.13;1.53;;;;;;;;;;5069395;28;20440;-68
2022/12/26 07:19:05;;;;;;;1.33;1.33;;;;;;;;;;5068272;28;20934;-68
2022/12/26 07:21:31;;;;;;;1.20;1.20;;;;;;;;;;5070052;28;20510;-68
2022/12/26 07:23:57;;;;;;;1.40;1.33;;;;;;;;;;5069974;28;20431;-67
2022/12/26 07:26:24;;;;;;;1.20;1.20;;;;;;;;;;5069277;28;20799;-68
2022/12/26 07:28:54;;;;;;;1.33;1.23;;;;;;;;;;5068913;28;20987;-68
2022/12/26 07:31:20;;;;;;;0.97;0.97;;;;;;;;;;5070309;28;20444;-68
2022/12/26 07:33:50;;;;;;;0.97;0.97;;;;;;;;;;5069975;28;20430;-69
2022/12/26 07:36:16;;;;;;;1.20;1.20;;;;;;;;;;5068801;28;20494;-68
2022/12/26 07:38:42;;;;;;;1.00;1.00;;;;;;;;;;5050533;28;20434;-68
2022/12/26 07:43:53;;;;;;;1.70;1.00;;;;;;;;;;5069991;28;20427;-68
2022/12/26 07:46:19;;;;;;;2.70;1.53;;;;;;;;;;5069714;28;20869;-68
2022/12/26 07:48:45;;;;;;;1.10;1.10;;;;;;;;;;5067404;28;20444;-68
2022/12/26 07:51:11;;;;;;;4.57;1.70;;;;;;;;;;5070140;28;20482;-68
2022/12/26 07:53:37;;;;;;;1.43;1.43;;;;;;;;;;5067889;28;20479;-68
2022/12/26 07:56:03;;;;;;;2.10;1.60;;;;;;;;;;5066581;28;20482;-69
2022/12/26 07:58:29;;;;;;;1.90;1.80;;;;;;;;;;5066841;28;20444;-68
2022/12/26 08:00:55;;;;;;;1.40;1.40;;;;;;;;;;5066651;28;20436;-69
2022/12/26 08:03:21;;;;;;;4.23;1.47;;;;;;;;;;5067347;28;20437;-68
2022/12/26 08:05:48;;;;;;;2.60;1.60;;;;;;;;;;5068436;28;20469;-69
2022/12/26 08:08:14;;;;;;;1.67;1.57;;;;;;;;;;5065880;28;20490;-69
2022/12/26 08:10:40;;;;;;;2.20;1.70;;;;;;;;;;5066120;28;20531;-69
2022/12/26 08:13:06;;;;;;;2.17;1.70;;;;;;;;;;5051680;28;20841;-69
2022/12/26 08:15:32;;;;;;;2.17;2.07;;;;;;;;;;5071058;28;20437;-68
2022/12/26 08:17:58;;;;;;;2.00;2.00;;;;;;;;;;5067909;28;20421;-69
2022/12/26 08:20:24;;;;;;;1.90;1.43;;;;;;;;;;5068512;28;20940;-69
2022/12/26 08:22:50;;;;;;;1.40;1.30;;;;;;;;;;5069623;28;20958;-69
2022/12/26 08:25:16;;;;;;;2.40;1.80;;;;;;;;;;5067759;28;20422;-69
2022/12/26 08:27:42;;;;;;;1.70;1.70;;;;;;;;;;5049770;28;20433;-69
2022/12/26 08:30:09;;;;;;;4.20;2.30;;;;;;;;;;5066421;28;20492;-68
2022/12/26 08:32:35;;;;;;;4.70;2.03;;;;;;;;;;5067370;28;20432;-69
2022/12/26 08:35:02;;;;;;;3.80;2.27;;;;;;;;;;5069228;28;20434;-69
2022/12/26 08:37:28;;;;;;;1.70;1.70;;;;;;;;;;5068456;28;20973;-68
2022/12/26 08:39:56;;;;;;;3.03;2.13;;;;;;;;;;5077579;22;20446;-68
2022/12/26 08:42:22;;;;;;;4.83;3.23;;;;;;;;;;5008875;28;20505;-68
2022/12/26 08:44:48;;;;;;;2.17;1.97;;;;;;;;;;5007357;28;20527;-68
2022/12/26 08:47:14;;;;;;;2.73;1.80;;;;;;;;;;5008668;28;20436;-69
2022/12/26 08:49:40;;;;;;;2.13;2.10;;;;;;;;;;5008486;28;20479;-68
2022/12/26 08:52:06;;;;;;;2.70;2.50;;;;;;;;;;5008942;28;20495;-68
2022/12/26 08:54:32;;;;;;;2.50;2.40;;;;;;;;;;5005032;28;20940;-68
2022/12/26 08:56:58;;;;;;;2.80;2.60;;;;;;;;;;5008882;28;20514;-68
2022/12/26 08:59:24;;;;;;;3.33;3.13;;;;;;;;;;5006962;28;20435;-68
2022/12/26 09:01:50;;;;;;;9.33;2.70;;;;;;;;;;5011196;28;20436;-68
2022/12/26 09:04:16;;;;;;;2.60;2.50;;;;;;;;;;5012308;28;20435;-68
2022/12/26 09:06:44;;;;;;;4.13;2.17;;;;;;;;;;5009517;28;20933;-68
2022/12/26 09:09:10;;;;;;;3.20;2.47;;;;;;;;;;5010722;28;20475;-68
2022/12/26 09:11:36;;;;;;;5.80;2.07;;;;;;;;;;5010602;28;20777;-68
2022/12/26 09:14:03;;;;;;;2.23;2.00;;;;;;;;;;5012688;28;20450;-68
2022/12/26 09:16:31;;;;;;;2.20;2.10;;;;;;;;;;5011205;28;20495;-68
2022/12/26 09:18:58;;;;;;;1.80;1.80;;;;;;;;;;5009423;28;20884;-68
2022/12/26 09:21:24;;;;;;;2.20;2.20;;;;;;;;;;5013178;28;20432;-67
2022/12/26 09:23:55;;;;;;;2.33;2.20;;;;;;;;;;5008893;28;20506;-68
2022/12/26 09:26:21;;;;;;;2.90;2.77;;;;;;;;;;5011929;28;20442;-68
2022/12/26 09:28:50;;;;;;;2.87;2.33;;;;;;;;;;5013504;28;20440;-68
2022/12/26 09:31:20;;;;;;;3.40;3.07;;;;;;;;;;5011563;28;20443;-68
2022/12/26 09:33:46;;;;;;;2.27;2.27;;;;;;;;;;5012842;28;20782;-68
2022/12/26 09:36:14;;;;;;;14.27;6.87;;;;;;;;;;5012265;28;20432;-68
2022/12/26 09:38:40;;;;;;;4.03;3.73;;;;;;;;;;5011194;28;20432;-68
2022/12/26 09:41:06;;;;;;;2.97;2.83;;;;;;;;;;5020256;28;20571;-68
2022/12/26 09:43:44;;;;;;;5.90;2.73;;;;;;;;;;5027993;28;20530;-68
2022/12/26 09:46:21;;;;;;;3.63;3.13;;;;;;;;;;5029608;28;20447;-68
2022/12/26 09:48:55;;;;;;;8.13;3.63;;;;;;;;;;5024151;28;20423;-68
2022/12/26 09:51:21;;;;;;;3.30;3.10;;;;;;;;;;5030139;28;20509;-69
2022/12/26 09:53:47;;;;;;;3.80;3.43;;;;;;;;;;5030745;28;20426;-69
2022/12/26 09:56:18;;;;;;;6.23;3.97;;;;;;;;;;5029437;28;20490;-68
2022/12/26 09:58:47;;;;;;;12.73;2.80;;;;;;;;;;5012856;28;20447;-69
2022/12/26 10:01:19;;;;;;;3.20;3.00;;;;;;;;;;5031346;28;20435;-69
2022/12/26 10:03:49;;;;;;;4.00;3.27;;;;;;;;;;5029716;28;20435;-68
2022/12/26 10:06:16;;;;;;;7.50;5.70;;;;;;;;;;5022547;28;20438;-69
2022/12/26 10:08:45;;;;;;;16.47;10.37;;;;;;;;;;5030621;28;20459;-69
2022/12/26 10:11:17;;;;;;;18.20;10.90;;;;;;;;;;5026442;28;20487;-68
2022/12/26 10:13:51;;;;;;;8.20;5.70;;;;;;;;;;5030000;28;20443;-68
2022/12/26 10:16:35;;;;;;;7.37;6.20;;;;;;;;;;5027614;28;20438;-69
2022/12/26 10:19:20;;;;;;;6.13;5.27;;;;;;;;;;5026456;28;20427;-68
2022/12/26 10:21:56;;;;;;;3.83;3.63;;;;;;;;;;5030605;28;20454;-68
2022/12/26 10:24:24;;;;;;;4.90;4.50;;;;;;;;;;5028883;28;20938;-68
2022/12/26 10:26:53;;;;;;;4.23;3.57;;;;;;;;;;5029667;28;20439;-69
2022/12/26 10:29:27;;;;;;;4.17;3.90;;;;;;;;;;5029029;28;20455;-68
2022/12/26 10:31:59;;;;;;;3.40;3.30;;;;;;;;;;5008913;28;20455;-71
2022/12/26 10:34:25;;;;;;;5.07;3.37;;;;;;;;;;5028358;28;20943;-71
2022/12/26 10:36:53;;;;;;;3.60;3.40;;;;;;;;;;5031332;28;20489;-68
2022/12/26 10:39:25;;;;;;;3.77;3.47;;;;;;;;;;5028199;28;20504;-68
2022/12/26 10:41:53;;;;;;;2.90;2.80;;;;;;;;;;5028080;28;20482;-68
2022/12/26 10:44:20;;;;;;;3.30;3.20;;;;;;;;;;5028194;28;20501;-68
2022/12/26 10:47:04;;;;;;;3.13;3.03;;;;;;;;;;5027964;28;20447;-68
2022/12/26 10:49:30;;;;;;;3.63;3.30;;;;;;;;;;5029180;28;20487;-68
2022/12/26 10:51:59;;;;;;;2.70;2.50;;;;;;;;;;5029836;28;20442;-69
2022/12/26 10:54:26;;;;;;;2.20;2.20;;;;;;;;;;5027630;28;21006;-69
2022/12/26 10:56:53;;;;;;;2.03;2.03;;;;;;;;;;5022484;28;20449;-68
2022/12/26 10:59:26;;;;;;;3.67;2.50;;;;;;;;;;5022768;28;20511;-68
2022/12/26 11:01:52;;;;;;;2.30;2.20;;;;;;;;;;5023802;28;20466;-67
2022/12/26 11:04:22;;;;;;;2.50;2.40;;;;;;;;;;5023088;28;20464;-69
2022/12/26 11:06:51;;;;;;;2.63;2.50;;;;;;;;;;5022211;28;20443;-69
2022/12/26 11:09:27;;;;;;;2.93;2.53;;;;;;;;;;5026057;28;20571;-68
2022/12/26 11:11:53;;;;;;;1.93;1.83;;;;;;;;;;5027412;28;20951;-69
2022/12/26 11:14:25;;;;;;;1.80;1.73;;;;;;;;;;5028102;28;20515;-69
2022/12/26 11:16:52;;;;;;;2.03;1.93;;;;;;;;;;5028613;28;20433;-68
2022/12/26 11:19:28;;;;;;;7.20;6.50;;;;;;;;;;5028142;28;20442;-68
2022/12/26 11:21:54;;;;;;;3.93;2.03;;;;;;;;;;5028495;28;20924;-68
2022/12/26 11:24:20;;;;;;;1.33;1.33;;;;;;;;;;5027340;28;20431;-68
2022/12/26 11:26:46;;;;;;;2.90;2.30;;;;;;;;;;5029477;28;20466;-69
2022/12/26 11:29:24;;;;;;;4.30;3.70;;;;;;;;;;5024962;28;20820;-70
2022/12/26 11:31:53;;;;;;;13.50;12.10;;;;;;;;;;5024259;28;20534;-68
2022/12/26 11:34:31;;;;;;;3.97;3.87;;;;;;;;;;5027528;28;20947;-68
2022/12/26 11:36:57;;;;;;;3.70;3.60;;;;;;;;;;5025353;28;20430;-68
2022/12/26 11:39:27;;;;;;;5.00;4.90;;;;;;;;;;5023972;28;20448;-67
2022/12/26 11:41:54;;;;;;;3.90;3.60;;;;;;;;;;5025906;28;20483;-68
2022/12/26 11:44:48;;;;;;;8.23;6.60;;;;;;;;;;5025018;28;20435;-66
2022/12/26 11:47:16;;;;;;;61.80;29.43;;;;;;;;;;5018390;28;21453;-67
2022/12/26 11:50:02;;;;;;;19.80;12.73;;;;;;;;;;5025130;28;21124;-67
2022/12/26 11:52:34;;;;;;;32.10;21.83;;;;;;;;;;5020608;28;20517;-67
2022/12/26 11:55:00;;;;;;;5.50;5.20;;;;;;;;;;5021189;28;20525;-70
2022/12/26 11:57:30;;;;;;;7.50;6.90;;;;;;;;;;5025753;28;20427;-67
2022/12/26 12:00:14;;;;;;;8.63;7.90;;;;;;;;;;5023981;28;20447;-67
2022/12/26 12:02:40;;;;;;;4.50;4.20;;;;;;;;;;5025959;28;20423;-69
2022/12/26 12:05:12;;;;;;;7.60;6.90;;;;;;;;;;5026307;28;20420;-69
2022/12/26 12:07:50;;;;;;;3.47;3.37;;;;;;;;;;5020659;28;20833;-69
2022/12/26 12:10:35;;;;;;;8.30;7.70;;;;;;;;;;5015330;28;20494;-67
2022/12/26 12:13:10;;;;;;;10.87;9.80;;;;;;;;;;5017500;28;20431;-68
2022/12/26 12:15:43;;;;;;;5.13;4.73;;;;;;;;;;5020089;28;21034;-68
2022/12/26 12:18:15;;;;;;;10.63;9.50;;;;;;;;;;5024502;28;20493;-68
2022/12/26 12:20:51;;;;;;;24.27;15.40;;;;;;;;;;5024243;28;20469;-68
2022/12/26 12:23:24;;;;;;;5.30;5.00;;;;;;;;;;5024264;28;20431;-68
2022/12/26 12:25:58;;;;;;;2.40;2.30;;;;;;;;;;5021505;28;20530;-68
2022/12/26 12:28:41;;;;;;;4.80;4.60;;;;;;;;;;5023728;28;20467;-68
2022/12/26 12:31:07;;;;;;;1.37;1.27;;;;;;;;;;5022307;28;20633;-68
2022/12/26 12:33:41;;;;;;;0.93;0.93;;;;;;;;;;5024965;28;20522;-69
2022/12/26 12:36:18;;;;;;;2.50;2.40;;;;;;;;;;5025864;28;20427;-68
2022/12/26 12:39:03;;;;;;;3.90;3.63;;;;;;;;;;5020535;28;20442;-69
2022/12/26 12:41:34;;;;;;;2.27;2.17;;;;;;;;;;4994786;28;20464;-68
2022/12/26 12:44:04;;;;;;;2.50;2.40;;;;;;;;;;4989789;28;20449;-68
2022/12/26 12:46:39;;;;;;;4.73;2.80;;;;;;;;;;4988828;28;20463;-68
2022/12/26 12:49:05;;;;;;;5.17;4.67;;;;;;;;;;4987967;28;20440;-68
2022/12/26 12:51:33;;;;;;;4.27;4.07;;;;;;;;;;4988961;28;20450;-68
2022/12/26 12:54:04;;;;;;;1.43;1.43;;;;;;;;;;4990120;28;20418;-68
2022/12/26 12:56:43;;;;;;;1.57;1.57;;;;;;;;;;5004990;28;20558;-68
2022/12/26 12:59:27;;;;;;;2.17;2.03;;;;;;;;;;4987970;28;20499;-69
2022/12/26 13:01:56;;;;;;;2.10;2.00;;;;;;;;;;5001808;28;20464;-68
2022/12/26 13:04:25;;;;;;;2.70;2.50;;;;;;;;;;4987832;28;20442;-68
2022/12/26 13:06:54;;;;;;;7.07;5.90;;;;;;;;;;4987999;28;20425;-68
2022/12/26 13:09:39;;;;;;;14.40;7.77;;;;;;;;;;4986043;28;20469;-68
2022/12/26 13:12:07;;;;;;;5.20;4.70;;;;;;;;;;4987883;28;20933;-68
2022/12/26 13:14:36;;;;;;;7.87;6.90;;;;;;;;;;4988039;28;20511;-68
2022/12/26 13:17:18;;;;;;;6.07;5.63;;;;;;;;;;4983207;28;20433;-69
2022/12/26 13:19:53;;;;;;;2.30;1.87;;;;;;;;;;4986718;28;20449;-68
2022/12/26 13:22:27;;;;;;;2.03;2.03;;;;;;;;;;4987340;28;20501;-69
2022/12/26 13:24:59;;;;;;;6.00;3.90;;;;;;;;;;4986469;28;20473;-68
2022/12/26 13:27:35;;;;;;;6.37;5.47;;;;;;;;;;4987532;28;20436;-68
2022/12/26 13:30:02;;;;;;;5.83;5.33;;;;;;;;;;4985726;28;20476;-68
2022/12/26 13:32:29;;;;;;;2.53;2.43;;;;;;;;;;4987436;28;20860;-68
2022/12/26 13:34:59;;;;;;;4.97;4.77;;;;;;;;;;4999640;28;20536;-68
2022/12/26 13:37:46;;;;;;;2.90;2.70;;;;;;;;;;4984006;28;20464;-68
2022/12/26 13:40:16;;;;;;;0.93;0.93;;;;;;;;;;4985402;28;20476;-68
2022/12/26 13:45:42;;;;;;;1.00;1.00;;;;;;;;;;5018726;28;20829;-68
2022/12/26 13:48:17;;;;;;;1.33;1.33;;;;;;;;;;5026731;28;20443;-68
2022/12/26 13:50:46;;;;;;;3.03;2.70;;;;;;;;;;5027010;28;20482;-68
2022/12/26 13:53:24;;;;;;;1.17;1.17;;;;;;;;;;5030720;28;20466;-68
2022/12/26 13:55:57;;;;;;;1.00;1.00;;;;;;;;;;5018714;28;20470;-68
2022/12/26 13:58:26;;;;;;;1.03;1.00;;;;;;;;;;5023825;28;20541;-68
2022/12/26 14:01:01;;;;;;;0.87;0.87;;;;;;;;;;5025099;28;20430;-68
2022/12/26 14:03:33;;;;;;;1.13;1.13;;;;;;;;;;5030600;28;20852;-68
2022/12/26 14:06:24;;;;;;;1.17;1.17;;;;;;;;;;5028229;28;20436;-68
2022/12/26 14:09:02;;;;;;;1.80;1.80;;;;;;;;;;5017970;28;20436;-68
2022/12/26 14:11:37;;;;;;;1.63;1.57;;;;;;;;;;5028174;28;20446;-68
2022/12/26 14:14:03;;;;;;;1.50;1.50;;;;;;;;;;5029509;28;20434;-68
2022/12/26 14:16:33;;;;;;;0.90;0.90;;;;;;;;;;5027474;28;20437;-68
2022/12/26 14:19:12;;;;;;;1.20;1.20;;;;;;;;;;5030095;28;20419;-68
2022/12/26 14:21:48;;;;;;;1.50;1.50;;;;;;;;;;5024221;28;20436;-68
2022/12/26 14:24:33;;;;;;;1.20;1.20;;;;;;;;;;5030343;28;20510;-68
2022/12/26 14:27:32;;;;;;;1.27;1.27;;;;;;;;;;5029059;28;20435;-68
2022/12/26 14:30:16;;;;;;;1.50;1.50;;;;;;;;;;4984566;28;20474;-68
2022/12/26 14:32:42;;;;;;;1.80;1.80;;;;;;;;;;5027146;28;20588;-68
2022/12/26 14:35:23;;;;;;;1.97;1.40;;;;;;;;;;5011504;28;20515;-68
2022/12/26 14:38:07;;;;;;;3.30;3.10;;;;;;;;;;5029744;28;20427;-68
2022/12/26 14:40:35;;;;;;;0.87;0.87;;;;;;;;;;5014868;28;20464;-68
2022/12/26 14:43:10;;;;;;;0.80;0.80;;;;;;;;;;4993167;28;20420;-68
2022/12/26 14:45:37;;;;;;;0.60;0.60;;;;;;;;;;4993734;28;20425;-68
2022/12/26 14:48:12;;;;;;;1.13;1.13;;;;;;;;;;5011289;28;20427;-68
2022/12/26 14:50:40;;;;;;;1.90;1.20;;;;;;;;;;5009486;28;20479;-68
2022/12/26 14:53:28;;;;;;;0.70;0.70;;;;;;;;;;5009292;28;20432;-68
2022/12/26 14:55:53;;;;;;;0.70;0.70;;;;;;;;;;5011169;28;20436;-68
2022/12/26 14:58:22;;;;;;;0.73;0.73;;;;;;;;;;5004246;28;20437;-68
2022/12/26 15:00:48;;;;;;;0.87;0.87;;;;;;;;;;5010126;28;20439;-68
2022/12/26 15:03:24;;;;;;;2.43;2.43;;;;;;;;;;5011612;28;20432;-68
2022/12/26 15:05:51;;;;;;;2.10;2.10;;;;;;;;;;5010980;28;20443;-68
2022/12/26 15:08:20;;;;;;;0.93;0.93;;;;;;;;;;5007034;28;20434;-68
2022/12/26 15:10:49;;;;;;;0.80;0.80;;;;;;;;;;5009194;28;21075;-68
2022/12/26 15:13:28;;;;;;;1.13;1.13;;;;;;;;;;4993069;28;20444;-68
2022/12/26 15:16:13;;;;;;;1.30;1.20;;;;;;;;;;5010479;28;20447;-68
2022/12/26 15:18:48;;;;;;;3.87;3.57;;;;;;;;;;5009156;28;20432;-68
2022/12/26 15:21:24;;;;;;;4.63;4.23;;;;;;;;;;5010559;28;20738;-68
2022/12/26 15:24:02;;;;;;;0.90;0.90;;;;;;;;;;5011255;28;20431;-68
2022/12/26 15:26:28;;;;;;;0.93;0.90;;;;;;;;;;5010815;28;20428;-68
2022/12/26 15:28:59;;;;;;;1.07;1.07;;;;;;;;;;5010272;28;20428;-68
2022/12/26 15:31:31;;;;;;;0.70;0.70;;;;;;;;;;5009998;28;20495;-68
2022/12/26 15:34:16;;;;;;;4.20;1.00;;;;;;;;;;5009573;28;20455;-68
2022/12/26 15:36:49;;;;;;;1.20;1.07;;;;;;;;;;5009749;28;20447;-68
2022/12/26 15:39:28;;;;;;;1.20;1.20;;;;;;;;;;4991046;28;20433;-68
2022/12/26 15:42:12;;;;;;;0.70;0.70;;;;;;;;;;5020491;28;20479;-68
2022/12/26 15:44:44;;;;;;;0.97;0.97;;;;;;;;;;5023231;28;20439;-69
2022/12/26 15:47:33;;;;;;;1.10;1.10;;;;;;;;;;5025567;28;20424;-68
2022/12/26 15:49:59;;;;;;;0.90;0.90;;;;;;;;;;5020646;28;20989;-68
2022/12/26 15:52:25;;;;;;;0.80;0.80;;;;;;;;;;5008197;28;20443;-68
2022/12/26 15:54:58;;;;;;;0.70;0.70;;;;;;;;;;5028058;28;20434;-68
2022/12/26 15:57:34;;;;;;;0.90;0.90;;;;;;;;;;5027683;28;21007;-67
2022/12/26 16:00:11;;;;;;;1.03;1.03;;;;;;;;;;5023511;28;20436;-69
2022/12/26 16:02:45;;;;;;;1.67;1.57;;;;;;;;;;5022912;28;20426;-68
2022/12/26 16:05:30;;;;;;;5.10;1.00;;;;;;;;;;5025218;28;20439;-68
2022/12/26 16:07:59;;;;;;;1.20;1.20;;;;;;;;;;5026629;28;20447;-68
2022/12/26 16:10:25;;;;;;;1.00;1.00;;;;;;;;;;5025176;28;20872;-68
2022/12/26 16:13:05;;;;;;;1.17;1.17;;;;;;;;;;5026450;28;20443;-68
2022/12/26 16:15:32;;;;;;;2.00;1.10;;;;;;;;;;5028943;28;20443;-68
2022/12/26 16:18:18;;;;;;;0.87;0.87;;;;;;;;;;5020859;28;20428;-68
2022/12/26 16:23:31;;;;;;;0.90;0.90;;;;;;;;;;5026366;28;20565;-68
2022/12/26 16:25:59;;;;;;;3.17;1.10;;;;;;;;;;5022065;28;20476;-68
2022/12/26 16:28:31;;;;;;;1.30;1.03;;;;;;;;;;5018685;28;20431;-68
2022/12/26 16:30:57;;;;;;;0.93;0.93;;;;;;;;;;5006219;28;20487;-68
2022/12/26 16:33:23;;;;;;;1.00;1.00;;;;;;;;;;5029107;28;20797;-68
2022/12/26 16:35:50;;;;;;;0.90;0.90;;;;;;;;;;5028581;28;20431;-69
2022/12/26 16:38:19;;;;;;;1.80;1.03;;;;;;;;;;5026981;28;20423;-68
2022/12/26 16:40:49;;;;;;;1.20;1.20;;;;;;;;;;5006992;28;20487;-68
2022/12/26 16:43:18;;;;;;;1.00;1.00;;;;;;;;;;5019086;28;20428;-68
2022/12/26 16:45:50;;;;;;;0.90;0.90;;;;;;;;;;5024873;28;20427;-68
2022/12/26 16:48:17;;;;;;;0.90;0.90;;;;;;;;;;5008914;28;20423;-70
2022/12/26 16:50:51;;;;;;;1.20;1.20;;;;;;;;;;5025286;28;20502;-68
2022/12/26 16:53:18;;;;;;;4.23;1.33;;;;;;;;;;5024963;28;20443;-68
2022/12/26 16:55:53;;;;;;;1.60;1.60;;;;;;;;;;5019113;28;20435;-68
2022/12/26 16:58:24;;;;;;;1.30;1.20;;;;;;;;;;5026036;28;20485;-69
2022/12/26 17:00:57;;;;;;;1.07;1.07;;;;;;;;;;5025374;28;20983;-69
2022/12/26 17:03:25;;;;;;;1.03;1.00;;;;;;;;;;5020364;28;20428;-68